Morgenster — PHMY — position and weather

sailwx.info

Track history (hours):
 
Tides and Currents Weather Stations Pressure Air Temp Water Temp Dewpoint Dewpoint Depression Visibility Wind Speed Wind Dir Waves Ship Positions

Morgenster

Last reported at 2017-Feb-25 15:33 UTC. Time now 2017-Feb-25 15:56 UTC.
Position N 37°49' W 026°54'.

Length 38 m; draft 2.4 m.

Type: Sailing vessel. MMSI: 245136000.

Date/timePositionNaut miles runAvg speedWind from/ knotsBaromVisibWave heightAir tempDewpointWater temp
2017-Feb-25 15:33N 37°49' W 026°54'7 7.2
2017-Feb-25 14:33N 37°41' W 026°54'9 7.1
2017-Feb-25 13:20N 37°33' W 026°53'7 6.5
2017-Feb-25 12:18N 37°26' W 026°53'  
2017-Feb-18 10:33N 28°26' W 016°04'4 3.9
2017-Feb-18 09:33N 28°24' W 016°00'5 4.9
2017-Feb-18 08:33N 28°22' W 015°55'6 5.9
2017-Feb-18 07:33N 28°20' W 015°49'6 6.1
2017-Feb-18 06:33N 28°18' W 015°42'4 4.3
2017-Feb-18 05:32N 28°16' W 015°38'4 4.4
2017-Feb-18 04:33N 28°15' W 015°33'4 4.4
2017-Feb-18 03:33N 28°15' W 015°28'3 3.4
2017-Feb-18 02:33N 28°14' W 015°24'3 3.4
2017-Feb-18 01:33N 28°12' W 015°21'3 2.9
2017-Feb-18 00:33N 28°12' W 015°18'3 2.6
2017-Feb-17 23:33N 28°12' W 015°20'2 1.8
2017-Feb-17 22:33N 28°13' W 015°22'4 4.1
2017-Feb-17 21:33N 28°11' W 015°18'5 5.0
2017-Feb-17 20:33N 28°08' W 015°14'4 4.4
2017-Feb-17 19:33N 28°06' W 015°09'5 5.1
2017-Feb-17 18:34N 28°04' W 015°04'6 5.8
2017-Feb-17 17:33N 28°05' W 015°11'6 5.8
2017-Feb-17 16:33N 28°06' W 015°17'4 3.6
2017-Feb-17 15:33N 28°06' W 015°21'3 2.8
2017-Feb-17 14:33N 28°07' W 015°24'2 1.8
2017-Feb-17 13:32N 28°08' W 015°25'0 0.0
2017-Feb-17 12:23N 28°08' W 015°25'0 0.0
2017-Feb-17 11:26N 28°08' W 015°25'0 0.0
2017-Feb-17 10:26N 28°08' W 015°25'0 0.0
2017-Feb-17 09:26N 28°08' W 015°25'0 0.0
2017-Feb-17 08:29N 28°08' W 015°25'0 0.0
2017-Feb-17 07:29N 28°08' W 015°25'0 0.0
2017-Feb-17 06:29N 28°08' W 015°25'0 0.0
2017-Feb-17 05:32N 28°08' W 015°25'0 0.0
2017-Feb-17 04:32N 28°08' W 015°25'0 0.0
2017-Feb-17 03:32N 28°08' W 015°25'0 0.0
2017-Feb-17 02:32N 28°08' W 015°25'0 0.0
2017-Feb-17 01:32N 28°08' W 015°25'0 0.0
2017-Feb-17 00:20N 28°08' W 015°25'0 0.0
2017-Feb-16 23:32N 28°08' W 015°25'0 0.0
2017-Feb-16 22:23N 28°08' W 015°25'0 0.0
2017-Feb-16 21:26N 28°08' W 015°25'0 0.0
2017-Feb-16 20:26N 28°08' W 015°25'0 0.0
2017-Feb-16 19:23N 28°08' W 015°25'0 0.0
2017-Feb-16 18:33N 28°08' W 015°25'3 3.3
2017-Feb-16 17:33N 28°06' W 015°23'4 3.9
2017-Feb-16 16:33N 28°04' W 015°19'4 4.0
2017-Feb-16 15:33N 28°01' W 015°15'5 4.6
2017-Feb-16 14:33N 27°58' W 015°11'4 4.3
2017-Feb-16 13:33N 27°54' W 015°13'5 5.0
2017-Feb-16 12:33N 27°50' W 015°15'4 4.1
2017-Feb-16 11:32N 27°46' W 015°18'  
Track history (hours):
 
Tides and Currents Weather Stations Pressure Air Temp Water Temp Dewpoint Dewpoint Depression Visibility Wind Speed Wind Dir Waves Ship Positions

Morgenster

Last reported at 2017-Feb-25 15:33 UTC. Time now 2017-Feb-25 15:56 UTC.
Position N 37°49' W 026°54'.

Length 38 m; draft 2.4 m.

Type: Sailing vessel. MMSI: 245136000.

Date/timePositionNaut miles runAvg speedWind from/ knotsBaromVisibWave heightAir tempDewpointWater temp
2017-Feb-25 15:33N 37°49' W 026°54'7 7.2
2017-Feb-25 14:33N 37°41' W 026°54'9 7.1
2017-Feb-25 13:20N 37°33' W 026°53'7 6.5
2017-Feb-25 12:18N 37°26' W 026°53'  
2017-Feb-18 10:33N 28°26' W 016°04'4 3.9
2017-Feb-18 09:33N 28°24' W 016°00'5 4.9
2017-Feb-18 08:33N 28°22' W 015°55'6 5.9
2017-Feb-18 07:33N 28°20' W 015°49'6 6.1
2017-Feb-18 06:33N 28°18' W 015°42'4 4.3
2017-Feb-18 05:32N 28°16' W 015°38'4 4.4
2017-Feb-18 04:33N 28°15' W 015°33'4 4.4
2017-Feb-18 03:33N 28°15' W 015°28'3 3.4
2017-Feb-18 02:33N 28°14' W 015°24'3 3.4
2017-Feb-18 01:33N 28°12' W 015°21'3 2.9
2017-Feb-18 00:33N 28°12' W 015°18'3 2.6
2017-Feb-17 23:33N 28°12' W 015°20'2 1.8
2017-Feb-17 22:33N 28°13' W 015°22'4 4.1
2017-Feb-17 21:33N 28°11' W 015°18'5 5.0
2017-Feb-17 20:33N 28°08' W 015°14'4 4.4
2017-Feb-17 19:33N 28°06' W 015°09'5 5.1
2017-Feb-17 18:34N 28°04' W 015°04'6 5.8
2017-Feb-17 17:33N 28°05' W 015°11'6 5.8
2017-Feb-17 16:33N 28°06' W 015°17'4 3.6
2017-Feb-17 15:33N 28°06' W 015°21'3 2.8
2017-Feb-17 14:33N 28°07' W 015°24'2 1.8
2017-Feb-17 13:32N 28°08' W 015°25'0 0.0
2017-Feb-17 12:23N 28°08' W 015°25'0 0.0
2017-Feb-17 11:26N 28°08' W 015°25'0 0.0
2017-Feb-17 10:26N 28°08' W 015°25'0 0.0
2017-Feb-17 09:26N 28°08' W 015°25'0 0.0
2017-Feb-17 08:29N 28°08' W 015°25'0 0.0
2017-Feb-17 07:29N 28°08' W 015°25'0 0.0
2017-Feb-17 06:29N 28°08' W 015°25'0 0.0
2017-Feb-17 05:32N 28°08' W 015°25'0 0.0
2017-Feb-17 04:32N 28°08' W 015°25'0 0.0
2017-Feb-17 03:32N 28°08' W 015°25'0 0.0
2017-Feb-17 02:32N 28°08' W 015°25'0 0.0
2017-Feb-17 01:32N 28°08' W 015°25'0 0.0
2017-Feb-17 00:20N 28°08' W 015°25'0 0.0
2017-Feb-16 23:32N 28°08' W 015°25'0 0.0
2017-Feb-16 22:23N 28°08' W 015°25'0 0.0
2017-Feb-16 21:26N 28°08' W 015°25'0 0.0
2017-Feb-16 20:26N 28°08' W 015°25'0 0.0
2017-Feb-16 19:23N 28°08' W 015°25'0 0.0
2017-Feb-16 18:33N 28°08' W 015°25'3 3.3
2017-Feb-16 17:33N 28°06' W 015°23'4 3.9
2017-Feb-16 16:33N 28°04' W 015°19'4 4.0
2017-Feb-16 15:33N 28°01' W 015°15'5 4.6
2017-Feb-16 14:33N 27°58' W 015°11'4 4.3
2017-Feb-16 13:33N 27°54' W 015°13'5 5.0
2017-Feb-16 12:33N 27°50' W 015°15'4 4.1
2017-Feb-16 11:32N 27°46' W 015°18'  

Dump ship's entire track history